Time;durP1;ratioP1;P1;durP2;ratioP2;P2;SDS_P1;SDS_P2;PMS_P1;PMS_P2;Temp;Humidity;BMP_temperature;BMP_pressure;BME280_temperature;BME280_humidity;BME280_pressure;Samples;Min_cycle;Max_cycle;Signal;HPM_P1;HPM_P2
2022/06/12 00:01:22;;;;;;;8.25;2.85;;;13.70;99.90;;;;;;5101821;28;20080;-51
2022/06/12 00:03:48;;;;;;;6.20;2.92;;;13.80;99.90;;;;;;5100139;28;20242;-52
2022/06/12 00:06:17;;;;;;;4.25;2.70;;;13.70;99.90;;;;;;5084410;28;20058;-51
2022/06/12 00:08:43;;;;;;;6.30;2.38;;;13.70;99.90;;;;;;5101798;28;20020;-51
2022/06/12 00:11:11;;;;;;;10.20;2.63;;;13.70;99.90;;;;;;5101158;28;20072;-51
2022/06/12 00:13:44;;;;;;;6.00;2.90;;;13.70;99.90;;;;;;5101733;28;20030;-53
2022/06/12 00:16:11;;;;;;;8.40;2.85;;;13.60;99.90;;;;;;5101520;28;20023;-52
2022/06/12 00:18:39;;;;;;;6.85;2.53;;;13.60;99.90;;;;;;5101912;28;20107;-49
2022/06/12 00:21:10;;;;;;;7.32;2.75;;;13.60;99.90;;;;;;5080382;28;20023;-53
2022/06/12 00:23:57;;;;;;;6.88;2.92;;;13.60;99.90;;;;;;5101668;28;20098;-52
2022/06/12 00:26:33;;;;;;;7.43;3.30;;;13.60;99.90;;;;;;5083421;28;20027;-50
2022/06/12 00:29:04;;;;;;;5.20;2.10;;;13.50;99.90;;;;;;5100213;28;20034;-52
2022/06/12 00:31:32;;;;;;;5.93;3.30;;;13.50;99.90;;;;;;5097083;28;20019;-51
2022/06/12 00:33:59;;;;;;;6.07;2.17;;;13.50;99.90;;;;;;5081829;28;20047;-50
2022/06/12 00:36:24;;;;;;;4.78;2.53;;;13.50;99.90;;;;;;5096084;28;20122;-51
2022/06/12 00:38:50;;;;;;;9.07;2.40;;;13.50;99.90;;;;;;5098074;28;20107;-49
2022/06/12 00:41:16;;;;;;;7.00;2.47;;;13.40;99.90;;;;;;5066979;28;20016;-50
2022/06/12 00:43:42;;;;;;;5.53;2.50;;;13.40;99.90;;;;;;5096329;28;20393;-50
2022/06/12 00:46:08;;;;;;;8.15;2.88;;;13.40;99.90;;;;;;5100522;28;20085;-50
2022/06/12 00:48:37;;;;;;;8.65;2.78;;;13.30;99.90;;;;;;5100938;28;20457;-49
2022/06/12 00:51:03;;;;;;;6.43;2.60;;;13.30;99.90;;;;;;5099623;28;20473;-49
2022/06/12 00:53:33;;;;;;;5.68;2.38;;;13.20;99.90;;;;;;5102014;28;20046;-49
2022/06/12 00:56:11;;;;;;;5.20;2.60;;;13.20;99.90;;;;;;5099138;28;20021;-48
2022/06/12 01:49:25;;;;;;;8.75;3.22;;;12.40;99.90;;;;;;5099534;28;20074;-50
2022/06/12 01:52:12;;;;;;;8.50;3.30;;;12.40;99.90;;;;;;5104160;28;20431;-52
2022/06/12 01:54:51;;;;;;;5.95;2.90;;;12.30;99.90;;;;;;5101214;28;20028;-51
2022/06/12 01:57:22;;;;;;;6.22;3.28;;;12.40;99.90;;;;;;5076300;28;20047;-51
2022/06/12 02:00:20;;;;;;;8.10;3.33;;;12.30;99.90;;;;;;5100708;28;20062;-51
2022/06/12 02:03:05;;;;;;;4.75;2.90;;;12.40;99.90;;;;;;5063794;28;20028;-53
2022/06/12 02:05:51;;;;;;;6.40;2.72;;;12.30;99.90;;;;;;5091697;28;20016;-51
2022/06/12 02:08:22;;;;;;;6.93;3.33;;;12.20;99.90;;;;;;5102799;28;20027;-54
2022/06/12 02:10:53;;;;;;;8.07;2.97;;;12.20;99.90;;;;;;5104230;28;20587;-52
2022/06/12 02:13:29;;;;;;;6.82;3.33;;;12.20;99.90;;;;;;5098253;28;20344;-54
2022/06/12 02:15:57;;;;;;;7.95;3.42;;;12.20;99.90;;;;;;5106183;28;20111;-53
2022/06/12 02:18:34;;;;;;;7.25;3.15;;;12.10;99.90;;;;;;5100479;28;20371;-51
2022/06/12 02:21:13;;;;;;;8.27;3.30;;;12.10;99.90;;;;;;5106410;28;20047;-53
2022/06/12 02:23:50;;;;;;;5.78;3.20;;;12.10;99.90;;;;;;5099164;28;20482;-50
2022/06/12 02:26:22;;;;;;;5.00;2.80;;;12.10;99.90;;;;;;5093174;28;20115;-54
2022/06/12 02:28:55;;;;;;;7.18;3.58;;;12.00;99.90;;;;;;5081862;28;20502;-50
2022/06/12 02:31:26;;;;;;;6.57;3.25;;;12.00;99.90;;;;;;5071067;28;20031;-50
2022/06/12 02:33:58;;;;;;;6.15;2.92;;;12.00;99.90;;;;;;5101676;28;20024;-51
2022/06/12 02:36:41;;;;;;;6.05;2.75;;;11.90;99.90;;;;;;5103524;28;20482;-53
2022/06/12 02:39:15;;;;;;;6.38;3.33;;;11.90;99.90;;;;;;5101824;28;20052;-49
2022/06/12 02:41:44;;;;;;;6.25;3.55;;;11.90;99.90;;;;;;5103218;28;20020;-53
2022/06/12 02:44:20;;;;;;;7.60;2.95;;;11.90;99.90;;;;;;5103151;28;20484;-53
2022/06/12 02:47:05;;;;;;;7.28;3.30;;;11.90;99.90;;;;;;5103799;28;20481;-50
2022/06/12 02:49:33;;;;;;;4.10;3.35;;;11.80;99.90;;;;;;5079854;28;20024;-50
2022/06/12 02:52:18;;;;;;;5.38;2.92;;;11.80;99.90;;;;;;5100917;28;20023;-51
2022/06/12 02:54:55;;;;;;;6.25;3.55;;;11.80;99.90;;;;;;5106244;28;20111;-52
2022/06/12 02:57:48;;;;;;;6.10;3.40;;;11.80;99.90;;;;;;5078188;28;20024;-49
2022/06/12 03:00:18;;;;;;;6.93;3.05;;;11.70;99.90;;;;;;5089382;28;20492;-48
2022/06/12 03:02:59;;;;;;;7.10;3.72;;;11.60;99.90;;;;;;5099294;28;20028;-50
2022/06/12 03:05:30;;;;;;;6.55;3.70;;;11.60;99.90;;;;;;5086206;28;20401;-48
2022/06/12 03:08:00;;;;;;;5.90;3.45;;;11.50;99.90;;;;;;5094791;28;20028;-50
2022/06/12 03:10:32;;;;;;;8.70;3.10;;;11.50;99.90;;;;;;5085328;28;20038;-49
2022/06/12 03:13:01;;;;;;;4.78;3.13;;;11.50;99.90;;;;;;5101493;28;20020;-48
2022/06/12 03:15:35;;;;;;;4.03;3.22;;;11.40;99.90;;;;;;5103108;28;20080;-49
2022/06/12 03:18:03;;;;;;;6.95;3.10;;;11.40;99.90;;;;;;5101205;28;20055;-50
2022/06/12 03:20:56;;;;;;;9.25;3.28;;;11.40;99.90;;;;;;5103507;28;20027;-51
2022/06/12 03:23:52;;;;;;;6.72;3.88;;;11.40;99.90;;;;;;5087196;28;20059;-50
2022/06/12 03:26:32;;;;;;;7.65;3.45;;;11.30;99.90;;;;;;5092271;28;20065;-49
2022/06/12 03:29:14;;;;;;;9.80;3.65;;;11.30;99.90;;;;;;5098056;28;20032;-49
2022/06/12 03:31:51;;;;;;;8.05;3.80;;;11.30;99.90;;;;;;5082938;28;20401;-50
2022/06/12 03:34:22;;;;;;;6.72;3.55;;;11.40;99.90;;;;;;5090228;28;20020;-49
2022/06/12 03:36:57;;;;;;;5.65;3.10;;;11.40;99.90;;;;;;5101290;28;20020;-50
2022/06/12 03:39:42;;;;;;;7.55;3.60;;;11.40;99.90;;;;;;5093196;28;20023;-50
2022/06/12 03:42:20;;;;;;;5.68;3.35;;;11.40;99.90;;;;;;5101733;28;20024;-50
2022/06/12 03:44:58;;;;;;;10.30;4.35;;;11.40;99.90;;;;;;5102622;28;20077;-49
2022/06/12 03:47:46;;;;;;;7.40;2.95;;;11.40;99.90;;;;;;5079462;28;20093;-49
2022/06/12 03:50:15;;;;;;;4.72;3.22;;;11.40;99.90;;;;;;5087097;28;20538;-51
2022/06/12 03:53:18;;;;;;;5.28;3.63;;;11.40;99.90;;;;;;5093769;28;20043;-52
2022/06/12 03:58:52;;;;;;;6.30;3.40;;;11.40;99.90;;;;;;5095421;28;20077;-49
2022/06/12 04:01:19;;;;;;;6.53;3.28;;;11.40;99.90;;;;;;5101909;28;20475;-50
2022/06/12 04:03:46;;;;;;;6.35;3.58;;;11.40;99.90;;;;;;5102358;28;20076;-48
2022/06/12 04:06:16;;;;;;;7.80;4.20;;;11.40;99.90;;;;;;5094733;28;20085;-50
2022/06/12 04:08:49;;;;;;;9.45;3.83;;;11.40;99.90;;;;;;5087141;28;20445;-50
2022/06/12 04:11:19;;;;;;;9.68;3.92;;;11.40;99.90;;;;;;5093108;28;20055;-50
2022/06/12 04:13:46;;;;;;;9.65;4.78;;;11.50;99.90;;;;;;5098291;28;20027;-49
2022/06/12 04:16:20;;;;;;;7.05;3.40;;;11.50;99.90;;;;;;5104543;28;20108;-50
2022/06/12 04:18:46;;;;;;;6.78;3.97;;;11.50;99.90;;;;;;5094356;28;20436;-51
2022/06/12 04:21:33;;;;;;;6.20;3.63;;;11.50;99.90;;;;;;5086627;28;20022;-50
2022/06/12 04:24:09;;;;;;;6.25;3.50;;;11.50;99.90;;;;;;5097670;28;20026;-49
2022/06/12 04:26:39;;;;;;;8.32;4.00;;;11.50;99.90;;;;;;5103382;28;20012;-48
2022/06/12 04:29:11;;;;;;;4.78;4.10;;;11.60;99.90;;;;;;5100538;28;20063;-49
2022/06/12 04:31:38;;;;;;;10.40;4.60;;;11.60;99.90;;;;;;5082266;28;20102;-51
2022/06/12 04:34:22;;;;;;;6.10;3.42;;;11.60;99.90;;;;;;5100033;28;20032;-50
2022/06/12 04:36:59;;;;;;;8.50;3.83;;;11.70;99.90;;;;;;5099969;28;20046;-50
2022/06/12 04:39:31;;;;;;;6.78;3.63;;;11.70;99.90;;;;;;5092575;28;20070;-49
2022/06/12 04:41:58;;;;;;;9.35;4.10;;;11.70;99.90;;;;;;5081993;28;20199;-51
2022/06/12 04:44:25;;;;;;;6.88;4.00;;;11.80;99.90;;;;;;5101345;28;20016;-50
2022/06/12 04:46:53;;;;;;;6.25;3.80;;;11.80;99.90;;;;;;5100681;28;20419;-50
2022/06/12 04:49:23;;;;;;;7.25;4.28;;;11.90;99.90;;;;;;5074030;28;20076;-49
2022/06/12 04:51:50;;;;;;;6.82;3.78;;;11.90;99.90;;;;;;5100624;28;20022;-48
2022/06/12 04:54:16;;;;;;;5.82;4.35;;;11.90;99.90;;;;;;5099421;28;20041;-47
2022/06/12 04:56:42;;;;;;;7.32;5.18;;;12.00;99.90;;;;;;5101509;28;20047;-48
2022/06/12 04:59:10;;;;;;;7.55;4.85;;;12.10;99.90;;;;;;5101083;28;20024;-51
2022/06/12 05:01:35;;;;;;;11.05;4.28;;;12.20;99.90;;;;;;5083016;28;20125;-49
2022/06/12 05:04:03;;;;;;;5.50;4.07;;;12.20;99.90;;;;;;5081078;28;20509;-50
2022/06/12 05:06:30;;;;;;;8.48;3.97;;;12.30;99.90;;;;;;5093798;28;20039;-48
2022/06/12 05:08:55;;;;;;;9.00;3.80;;;12.40;99.90;;;;;;5087246;28;20489;-49
2022/06/12 05:11:22;;;;;;;12.23;3.95;;;12.50;99.90;;;;;;5096664;28;20021;-47
2022/06/12 05:13:48;;;;;;;6.90;4.10;;;12.50;99.90;;;;;;5079335;28;20102;-47
2022/06/12 05:16:37;;;;;;;8.30;4.10;;;12.70;99.90;;;;;;5103735;28;20487;-50
2022/06/12 05:19:05;;;;;;;6.53;4.03;;;12.80;99.90;;;;;;5097946;28;20397;-48
2022/06/12 05:21:32;;;;;;;8.32;3.60;;;12.90;99.90;;;;;;5101528;28;20016;-49
2022/06/12 05:23:59;;;;;;;10.18;4.15;;;13.00;99.90;;;;;;5080446;28;20016;-50
2022/06/12 05:26:26;;;;;;;6.70;3.28;;;13.00;99.90;;;;;;5104146;28;20478;-48
2022/06/12 05:28:52;;;;;;;5.88;3.60;;;13.20;99.90;;;;;;5097882;28;20040;-51
2022/06/12 05:31:18;;;;;;;8.15;4.57;;;13.30;99.90;;;;;;5100891;28;20102;-51
2022/06/12 05:33:45;;;;;;;7.07;3.63;;;13.40;99.90;;;;;;5099527;28;20103;-49
2022/06/12 05:36:13;;;;;;;8.60;3.70;;;13.60;99.90;;;;;;5100602;28;20020;-50
2022/06/12 05:38:41;;;;;;;12.10;3.28;;;13.80;99.90;;;;;;5101072;28;20036;-53
2022/06/12 05:41:07;;;;;;;10.98;3.25;;;14.00;99.90;;;;;;5081607;28;20035;-50
2022/06/12 05:43:32;;;;;;;9.20;3.00;;;14.20;99.90;;;;;;5102258;28;20111;-50
2022/06/12 05:45:58;;;;;;;8.90;4.20;;;14.40;99.90;;;;;;5098736;28;20100;-49
2022/06/12 05:48:23;;;;;;;12.63;3.60;;;14.60;99.90;;;;;;5082904;28;20508;-49
2022/06/12 05:50:57;;;;;;;6.57;2.85;;;14.90;99.90;;;;;;5098700;28;20028;-52
2022/06/12 05:53:25;;;;;;;10.85;4.10;;;15.10;99.90;;;;;;5082051;28;20512;-50
2022/06/12 05:55:51;;;;;;;6.85;2.47;;;15.30;99.90;;;;;;5099467;28;20030;-50
2022/06/12 05:58:17;;;;;;;5.50;2.25;;;15.50;99.90;;;;;;5103841;28;20073;-51
2022/06/12 06:00:44;;;;;;;9.88;3.25;;;15.60;99.90;;;;;;5086601;28;20107;-49
2022/06/12 06:03:09;;;;;;;8.50;2.78;;;15.80;99.90;;;;;;5103748;28;20112;-52
2022/06/12 06:05:37;;;;;;;8.32;2.97;;;15.90;99.90;;;;;;5100597;28;20126;-50
2022/06/12 06:08:03;;;;;;;8.45;3.33;;;16.10;99.90;;;;;;5085574;28;20023;-50
2022/06/12 06:10:29;;;;;;;8.10;2.83;;;16.30;99.90;;;;;;5086343;28;20030;-51
2022/06/12 06:12:55;;;;;;;9.05;2.95;;;16.40;99.90;;;;;;5103169;28;20027;-50
2022/06/12 06:15:21;;;;;;;6.50;2.63;;;16.60;99.90;;;;;;5085370;28;20016;-49
2022/06/12 06:17:48;;;;;;;7.47;2.33;;;16.80;99.90;;;;;;5104455;28;20024;-47
2022/06/12 06:20:18;;;;;;;8.85;2.95;;;17.00;99.90;;;;;;5102358;28;20393;-51
2022/06/12 06:22:43;;;;;;;7.03;2.25;;;17.20;99.90;;;;;;5085667;28;20024;-52
2022/06/12 06:25:10;;;;;;;10.88;3.00;;;17.40;99.90;;;;;;5103682;28;20027;-49
2022/06/12 06:27:35;;;;;;;4.95;2.25;;;17.40;99.90;;;;;;5104060;28;20031;-50
2022/06/12 06:30:01;;;;;;;8.75;2.30;;;17.50;99.90;;;;;;5102348;28;20023;-49
2022/06/12 06:32:27;;;;;;;7.78;2.42;;;17.70;99.90;;;;;;5103427;28;20449;-51
2022/06/12 06:34:52;;;;;;;8.48;2.65;;;17.80;99.90;;;;;;5103544;28;20038;-49
2022/06/12 06:37:18;;;;;;;9.00;2.55;;;17.90;99.90;;;;;;5102752;28;20019;-53
2022/06/12 06:39:44;;;;;;;10.07;1.83;;;18.10;99.90;;;;;;5104122;28;20020;-51
2022/06/12 06:42:10;;;;;;;8.45;2.58;;;18.30;99.90;;;;;;5102829;28;20485;-50
2022/06/12 06:47:21;;;;;;;7.63;2.30;;;18.70;99.90;;;;;;5098694;28;20084;-50
2022/06/12 06:49:47;;;;;;;6.00;1.70;;;18.80;99.90;;;;;;5106493;28;20023;-50
2022/06/12 06:52:13;;;;;;;11.73;2.40;;;19.00;99.90;;;;;;5100088;28;20066;-50
2022/06/12 06:54:38;;;;;;;13.20;2.95;;;19.10;99.90;;;;;;5105902;28;20490;-53
2022/06/12 06:57:06;;;;;;;9.90;2.20;;;19.30;99.90;;;;;;5101415;28;20067;-52
2022/06/12 06:59:32;;;;;;;9.30;2.85;;;19.50;99.90;;;;;;5105953;28;20016;-51
2022/06/12 07:01:58;;;;;;;8.68;2.08;;;19.70;99.90;;;;;;5101942;28;20023;-49
2022/06/12 07:04:24;;;;;;;8.27;2.35;;;19.80;99.90;;;;;;5099469;28;20523;-52
2022/06/12 07:06:49;;;;;;;6.90;2.03;;;20.00;99.90;;;;;;5096957;28;20024;-51
2022/06/12 07:09:15;;;;;;;10.63;3.13;;;20.20;99.90;;;;;;5107137;28;20099;-49
2022/06/12 07:11:41;;;;;;;13.88;3.20;;;20.20;99.90;;;;;;5081267;28;20031;-51
2022/06/12 07:14:07;;;;;;;4.90;1.63;;;20.40;99.90;;;;;;5102384;28;20032;-50
2022/06/12 07:16:33;;;;;;;8.55;2.03;;;20.40;99.90;;;;;;5080296;28;20032;-50
2022/06/12 07:18:59;;;;;;;4.75;1.95;;;20.60;99.90;;;;;;5081809;28;20402;-49
2022/06/12 07:21:25;;;;;;;6.80;2.10;;;20.80;99.90;;;;;;5103189;28;20031;-52
2022/06/12 07:23:50;;;;;;;5.70;1.77;;;21.00;99.90;;;;;;5099760;28;20012;-53
2022/06/12 07:26:26;;;;;;;5.68;1.27;;;21.10;99.90;;;;;;5099868;28;20149;-54
2022/06/12 07:28:52;;;;;;;;;;;21.20;97.30;;;;;;5079530;28;20038;-51
2022/06/12 07:31:19;;;;;;;7.63;1.67;;;21.30;97.60;;;;;;5084888;28;19907;-52
2022/06/12 07:33:45;;;;;;;7.30;2.00;;;21.30;98.80;;;;;;5101393;28;20367;-52
2022/06/12 07:36:14;;;;;;;6.20;1.90;;;21.50;98.30;;;;;;5101344;28;20023;-52
2022/06/12 07:38:40;;;;;;;7.72;2.05;;;21.70;98.50;;;;;;5102779;28;20024;-51
2022/06/12 07:41:09;;;;;;;7.50;1.52;;;21.80;97.20;;;;;;5101636;28;20024;-52
2022/06/12 07:43:36;;;;;;;5.75;1.40;;;21.90;95.20;;;;;;5085502;28;20065;-53
2022/06/12 07:46:04;;;;;;;4.65;1.65;;;22.10;96.90;;;;;;5101087;28;20100;-52
2022/06/12 07:48:33;;;;;;;9.18;2.10;;;22.30;97.00;;;;;;5102807;28;20434;-50
2022/06/12 07:51:02;;;;;;;5.00;1.25;;;22.50;97.60;;;;;;5098508;28;20024;-50
2022/06/12 07:53:28;;;;;;;10.23;1.65;;;22.80;94.10;;;;;;5096851;28;20036;-51
2022/06/12 07:55:54;;;;;;;4.80;2.40;;;22.80;94.80;;;;;;5099686;28;20027;-51
2022/06/12 07:58:23;;;;;;;4.32;1.38;;;23.00;95.10;;;;;;5102358;28;20019;-51
2022/06/12 08:00:49;;;;;;;3.85;1.10;;;23.20;94.50;;;;;;5102106;28;20412;-51
2022/06/12 08:03:15;;;;;;;5.30;2.17;;;23.30;95.10;;;;;;5088374;28;20062;-50
2022/06/12 08:05:40;;;;;;;6.20;1.95;;;23.40;91.40;;;;;;5098798;28;20016;-49
2022/06/12 08:08:06;;;;;;;4.63;1.30;;;23.50;94.40;;;;;;5102050;28;20387;-50
2022/06/12 08:10:32;;;;;;;6.55;1.83;;;23.60;93.00;;;;;;5102734;28;20099;-51
2022/06/12 08:13:01;;;;;;;5.50;1.98;;;23.90;93.70;;;;;;5100374;28;20038;-51
2022/06/12 08:15:27;;;;;;;5.03;1.55;;;24.00;91.80;;;;;;5101899;28;20047;-49
2022/06/12 08:17:56;;;;;;;6.55;1.73;;;24.10;91.80;;;;;;5102231;28;20038;-52
2022/06/12 08:20:25;;;;;;;4.50;1.83;;;24.20;93.20;;;;;;5093704;28;20024;-50
2022/06/12 08:22:53;;;;;;;4.43;1.63;;;24.30;92.00;;;;;;5101523;28;20473;-49
2022/06/12 08:25:20;;;;;;;3.00;1.45;;;24.50;91.40;;;;;;5101964;28;20473;-50
2022/06/12 08:27:46;;;;;;;7.80;1.77;;;24.50;91.50;;;;;;5083602;28;20374;-50
2022/06/12 08:30:12;;;;;;;6.57;2.05;;;24.60;90.60;;;;;;5080363;28;20086;-51
2022/06/12 08:32:39;;;;;;;6.30;1.58;;;24.60;88.90;;;;;;5102560;28;20027;-53
2022/06/12 08:35:10;;;;;;;5.40;1.60;;;24.60;87.50;;;;;;5099259;28;20115;-50
2022/06/12 08:37:38;;;;;;;4.38;1.30;;;24.70;87.10;;;;;;5103277;28;20028;-52
2022/06/12 08:40:09;;;;;;;4.45;1.60;;;24.60;90.50;;;;;;5099592;28;20035;-50
2022/06/12 08:43:03;;;;;;;6.55;1.38;;;24.70;86.20;;;;;;5104038;28;20019;-50
2022/06/12 08:45:36;;;;;;;3.63;1.10;;;24.70;88.70;;;;;;5095132;28;20477;-50
2022/06/12 08:48:27;;;;;;;8.38;1.50;;;24.60;87.60;;;;;;5100036;28;20024;-49
2022/06/12 08:51:05;;;;;;;6.45;2.10;;;24.60;83.40;;;;;;5085269;28;20562;-50
2022/06/12 08:53:34;;;;;;;6.05;1.77;;;24.60;85.30;;;;;;5101168;28;20059;-52
2022/06/12 08:56:06;;;;;;;4.28;1.38;;;24.60;88.60;;;;;;5100209;28;20016;-52
2022/06/12 08:58:58;;;;;;;2.50;0.90;;;24.60;83.50;;;;;;5101582;28;20028;-51
2022/06/12 09:01:23;;;;;;;5.80;1.60;;;24.80;87.30;;;;;;5092868;28;20026;-52
2022/06/12 09:03:53;;;;;;;7.18;2.00;;;24.70;83.10;;;;;;5093008;28;20019;-54
2022/06/12 09:06:30;;;;;;;5.80;2.00;;;24.40;86.50;;;;;;5090408;28;20099;-51
2022/06/12 09:09:22;;;;;;;3.50;1.48;;;24.50;86.00;;;;;;5105714;28;20024;-51
2022/06/12 09:12:08;;;;;;;5.93;1.75;;;24.80;88.10;;;;;;5089723;28;20548;-50
2022/06/12 09:14:33;;;;;;;;;;;24.80;83.90;;;;;;5090241;28;20035;-52
2022/06/12 09:17:09;;;;;;;4.10;1.40;;;25.00;83.70;;;;;;5081549;28;19912;-54
2022/06/12 09:19:44;;;;;;;5.82;1.67;;;24.90;84.50;;;;;;5101817;28;20115;-52
2022/06/12 09:22:19;;;;;;;5.03;1.63;;;24.80;83.50;;;;;;5100353;28;20098;-55
2022/06/12 09:24:57;;;;;;;5.78;1.58;;;24.70;84.80;;;;;;5101472;28;20023;-47
2022/06/12 09:27:44;;;;;;;5.75;1.50;;;24.60;83.90;;;;;;5101467;28;20024;-50
2022/06/12 09:30:23;;;;;;;6.07;2.08;;;24.60;84.20;;;;;;5098206;28;20036;-49
2022/06/12 09:33:07;;;;;;;7.68;1.70;;;24.50;88.40;;;;;;5105786;28;20638;-53
2022/06/12 09:35:54;;;;;;;5.40;1.33;;;24.70;87.30;;;;;;5100813;28;20099;-49
2022/06/12 09:38:38;;;;;;;6.22;1.65;;;24.80;86.50;;;;;;5094670;28;20032;-49
2022/06/12 09:41:40;;;;;;;7.97;2.08;;;24.70;83.80;;;;;;5102402;28;20023;-48
2022/06/12 09:44:17;;;;;;;4.60;2.13;;;24.50;82.70;;;;;;5086799;28;20459;-51
2022/06/12 09:47:12;;;;;;;6.47;1.48;;;24.50;81.40;;;;;;5086871;28;20102;-47
2022/06/12 09:50:01;;;;;;;5.53;1.52;;;24.30;87.30;;;;;;5101818;28;20046;-49
2022/06/12 09:52:49;;;;;;;5.70;1.60;;;24.50;85.50;;;;;;5099023;28;20023;-53
2022/06/12 09:55:33;;;;;;;4.38;1.05;;;24.60;88.20;;;;;;5118699;22;20030;-54
2022/06/12 09:58:29;;;;;;;2.45;1.17;;;24.90;83.30;;;;;;5052775;28;20396;-54
2022/06/12 10:01:23;;;;;;;6.13;1.75;;;24.70;80.80;;;;;;5063758;28;20113;-55
2022/06/12 10:03:59;;;;;;;4.22;1.60;;;24.70;82.40;;;;;;5059597;28;20033;-55
2022/06/12 10:06:35;;;;;;;4.10;1.13;;;24.70;85.10;;;;;;5063465;28;20013;-52
2022/06/12 10:09:15;;;;;;;4.93;1.83;;;24.90;81.60;;;;;;5068626;28;20161;-54
2022/06/12 10:12:13;;;;;;;5.35;1.30;;;24.70;82.80;;;;;;5042336;28;20522;-50
2022/06/12 10:14:48;;;;;;;3.72;1.40;;;24.50;84.90;;;;;;5043168;28;20171;-53
2022/06/12 10:17:35;;;;;;;6.13;1.40;;;24.40;83.90;;;;;;5051087;28;20028;-49
2022/06/12 10:20:29;;;;;;;5.63;1.20;;;24.50;85.70;;;;;;5062531;28;20056;-51
2022/06/12 10:22:56;;;;;;;6.55;1.65;;;24.40;78.80;;;;;;5062908;28;20452;-52
2022/06/12 10:25:32;;;;;;;5.95;1.67;;;24.40;80.50;;;;;;5064553;28;20012;-52
2022/06/12 10:28:03;;;;;;;5.22;1.30;;;24.50;83.50;;;;;;5062535;28;20021;-55
2022/06/12 10:30:38;;;;;;;6.10;1.85;;;24.40;80.50;;;;;;5060433;28;20455;-54
2022/06/12 10:33:21;;;;;;;5.95;1.30;;;24.30;81.00;;;;;;5066410;28;20012;-48
2022/06/12 10:35:49;;;;;;;3.67;1.27;;;24.00;78.40;;;;;;5055578;28;20029;-51
2022/06/12 10:38:14;;;;;;;2.70;1.30;;;23.80;83.00;;;;;;5053233;28;20013;-53
2022/06/12 10:40:57;;;;;;;6.40;1.48;;;23.90;83.70;;;;;;5060253;28;20101;-52
2022/06/12 10:43:35;;;;;;;4.90;1.20;;;24.10;82.30;;;;;;5052907;28;20039;-50
2022/06/12 10:46:15;;;;;;;6.57;1.80;;;24.20;85.00;;;;;;5060212;28;20025;-53
2022/06/12 10:48:42;;;;;;;4.32;1.58;;;24.20;83.00;;;;;;5062492;28;20083;-53
2022/06/12 10:51:13;;;;;;;5.00;1.60;;;24.40;82.60;;;;;;5062615;28;20065;-54
2022/06/12 10:53:39;;;;;;;5.90;1.17;;;24.40;80.40;;;;;;5063501;28;20030;-53
2022/06/12 10:56:08;;;;;;;6.90;1.30;;;24.20;80.40;;;;;;5062045;28;20096;-50
2022/06/12 10:59:11;;;;;;;4.57;1.45;;;24.20;82.60;;;;;;5063479;28;20070;-54
2022/06/12 11:02:01;;;;;;;4.70;2.03;;;24.30;81.20;;;;;;5058107;28;20486;-54
2022/06/12 11:04:50;;;;;;;5.32;1.65;;;24.30;79.10;;;;;;5058990;28;20017;-47
2022/06/12 11:07:25;;;;;;;4.82;1.73;;;24.10;79.60;;;;;;5049549;28;20016;-52
2022/06/12 11:10:03;;;;;;;4.32;1.02;;;23.90;80.50;;;;;;5062943;28;20035;-51
2022/06/12 11:12:59;;;;;;;4.15;1.27;;;23.70;81.00;;;;;;5062961;28;20474;-49
2022/06/12 11:15:28;;;;;;;3.58;1.48;;;23.40;81.40;;;;;;5055818;28;20021;-51
2022/06/12 11:18:14;;;;;;;2.53;1.42;;;23.30;80.60;;;;;;5062237;28;20082;-51
2022/06/12 11:21:06;;;;;;;3.10;1.35;;;23.30;81.00;;;;;;5060510;28;20024;-52
2022/06/12 11:23:43;;;;;;;5.93;1.45;;;23.20;83.80;;;;;;5057389;28;20017;-50
2022/06/12 11:26:46;;;;;;;3.75;1.38;;;23.20;81.50;;;;;;5067083;28;20021;-54
2022/06/12 11:29:51;;;;;;;4.35;1.35;;;23.10;81.90;;;;;;5062253;28;20017;-54
2022/06/12 11:32:58;;;;;;;4.18;1.23;;;22.80;80.90;;;;;;5053029;28;20028;-54
2022/06/12 11:35:42;;;;;;;3.47;1.05;;;22.50;83.30;;;;;;5048938;28;20079;-51
2022/06/12 11:38:38;;;;;;;3.30;1.10;;;22.60;86.50;;;;;;5065974;28;20029;-49
2022/06/12 11:41:12;;;;;;;5.45;1.63;;;22.70;87.40;;;;;;5061885;28;20033;-51
2022/06/12 11:43:44;;;;;;;4.30;1.35;;;22.50;84.10;;;;;;5063489;28;20025;-55
2022/06/12 11:46:20;;;;;;;3.40;1.60;;;22.30;85.30;;;;;;5062253;28;20103;-53
2022/06/12 11:49:19;;;;;;;4.53;1.50;;;22.30;86.60;;;;;;5060994;28;20028;-52
2022/06/12 11:52:03;;;;;;;6.47;1.55;;;22.20;86.60;;;;;;5058121;28;20502;-52
2022/06/12 11:54:42;;;;;;;4.32;1.63;;;22.30;86.40;;;;;;5056917;28;20074;-53
2022/06/12 11:57:19;;;;;;;5.80;1.70;;;22.60;90.90;;;;;;5059343;28;20101;-54
2022/06/12 11:59:57;;;;;;;3.92;1.55;;;22.90;89.40;;;;;;5066420;28;20457;-53
2022/06/12 12:02:28;;;;;;;4.68;1.67;;;23.30;89.40;;;;;;5054200;28;20102;-51
2022/06/12 12:05:16;;;;;;;3.22;1.45;;;23.60;84.90;;;;;;5059270;28;20017;-48
2022/06/12 12:08:03;;;;;;;5.00;1.73;;;23.70;83.10;;;;;;5062090;28;20096;-54
2022/06/12 12:10:39;;;;;;;6.10;1.05;;;23.90;81.90;;;;;;5055026;28;20047;-56
2022/06/12 12:13:10;;;;;;;6.47;1.65;;;23.80;79.00;;;;;;5041488;28;20052;-55
2022/06/12 12:15:43;;;;;;;5.93;1.40;;;23.70;79.90;;;;;;5062832;28;20028;-51
2022/06/12 12:18:34;;;;;;;3.35;1.52;;;23.50;80.90;;;;;;5059286;28;20053;-53
2022/06/12 12:21:03;;;;;;;6.32;1.25;;;23.50;80.50;;;;;;5043748;28;20101;-55
2022/06/12 12:23:36;;;;;;;6.55;1.55;;;23.30;81.30;;;;;;5058064;28;20033;-51
2022/06/12 12:26:19;;;;;;;6.43;1.80;;;23.10;84.60;;;;;;5066237;28;20539;-50
2022/06/12 12:28:54;;;;;;;7.55;2.10;;;22.90;84.50;;;;;;5040268;28;20137;-55
2022/06/12 12:31:21;;;;;;;4.75;1.98;;;22.60;85.00;;;;;;5046774;28;20087;-51
2022/06/12 12:33:49;;;;;;;9.88;2.17;;;22.50;89.90;;;;;;5059250;28;20574;-52
2022/06/12 12:41:53;;;;;;;5.32;1.65;;;22.50;90.90;;;;;;5061019;28;20042;-55
2022/06/12 12:44:39;;;;;;;5.65;1.45;;;22.60;90.80;;;;;;5061615;28;20020;-50
2022/06/12 12:47:22;;;;;;;4.68;1.50;;;22.80;90.80;;;;;;5059055;28;20024;-52
2022/06/12 12:50:06;;;;;;;5.18;1.25;;;23.00;88.40;;;;;;5064208;28;20485;-54
2022/06/12 12:52:54;;;;;;;5.85;1.50;;;23.10;90.30;;;;;;5056193;28;20021;-54
2022/06/12 12:55:20;;;;;;;5.45;2.13;;;23.10;87.90;;;;;;5033921;28;20487;-49
2022/06/12 12:57:46;;;;;;;5.85;2.17;;;23.00;89.30;;;;;;5058159;28;20044;-55
2022/06/12 13:00:17;;;;;;;5.32;1.60;;;23.00;89.20;;;;;;5066007;28;20029;-52
2022/06/12 13:02:54;;;;;;;4.80;1.70;;;23.00;90.40;;;;;;5057666;28;20068;-55
2022/06/12 13:05:35;;;;;;;6.97;2.08;;;23.00;88.90;;;;;;5046611;28;20111;-55
2022/06/12 13:08:19;;;;;;;4.03;1.65;;;22.90;90.10;;;;;;5065996;28;20067;-54
2022/06/12 13:11:13;;;;;;;5.82;2.20;;;22.80;89.50;;;;;;5049928;28;20031;-51
2022/06/12 13:14:01;;;;;;;2.60;1.52;;;22.50;88.50;;;;;;5058922;28;20406;-50
2022/06/12 13:16:47;;;;;;;6.10;1.50;;;22.20;90.90;;;;;;5059467;28;20048;-53
2022/06/12 13:19:54;;;;;;;3.00;1.65;;;21.80;92.50;;;;;;5066717;28;20025;-51
2022/06/12 13:22:25;;;;;;;4.65;2.00;;;21.80;93.50;;;;;;5008540;28;20025;-52
2022/06/12 13:25:03;;;;;;;4.60;1.48;;;21.90;92.70;;;;;;5011066;28;20033;-50
2022/06/12 13:27:32;;;;;;;3.10;1.58;;;22.10;92.80;;;;;;5038983;28;20036;-48
2022/06/12 13:29:58;;;;;;;4.32;1.77;;;22.20;91.80;;;;;;5066616;28;20149;-51
2022/06/12 13:32:31;;;;;;;5.35;1.40;;;22.40;91.90;;;;;;5066827;28;20029;-52
2022/06/12 13:35:19;;;;;;;3.15;1.05;;;22.40;90.60;;;;;;5048887;28;20036;-53
2022/06/12 13:37:47;;;;;;;4.75;1.73;;;22.30;90.80;;;;;;5066684;28;20048;-51
2022/06/12 13:40:33;;;;;;;2.75;1.42;;;22.40;90.90;;;;;;5064413;28;20025;-53
2022/06/12 13:43:10;;;;;;;3.38;1.95;;;22.50;91.40;;;;;;5071944;28;20567;-53
2022/06/12 13:45:36;;;;;;;3.55;1.67;;;22.60;90.70;;;;;;5064356;28;20009;-50
2022/06/12 13:48:19;;;;;;;3.53;1.75;;;22.70;90.70;;;;;;5066061;28;20075;-54
2022/06/12 13:50:52;;;;;;;5.97;1.80;;;22.80;92.30;;;;;;5064166;28;20074;-52
2022/06/12 13:53:18;;;;;;;3.75;2.00;;;22.80;88.90;;;;;;5051511;28;20070;-51
2022/06/12 13:55:59;;;;;;;6.22;1.90;;;22.80;91.20;;;;;;5064037;28;20021;-54
2022/06/12 13:58:27;;;;;;;3.10;1.77;;;22.60;90.70;;;;;;5058204;28;20032;-51
2022/06/12 14:00:56;;;;;;;5.13;1.65;;;22.70;91.20;;;;;;5065404;28;20066;-53
2022/06/12 14:03:29;;;;;;;3.85;1.25;;;22.90;91.20;;;;;;5067433;28;20024;-52
2022/06/12 14:06:06;;;;;;;4.13;1.90;;;23.00;90.40;;;;;;5066753;28;20016;-53
2022/06/12 14:08:34;;;;;;;4.60;1.95;;;23.20;90.30;;;;;;5058134;28;20021;-52
2022/06/12 14:11:00;;;;;;;4.40;1.63;;;23.10;90.00;;;;;;5070047;28;20037;-52
2022/06/12 14:13:44;;;;;;;3.80;1.40;;;23.00;90.20;;;;;;5063678;28;20024;-51
2022/06/12 14:16:21;;;;;;;5.18;1.40;;;22.80;88.60;;;;;;5071080;28;20035;-50
2022/06/12 14:18:57;;;;;;;3.78;1.65;;;22.40;87.70;;;;;;5058856;28;20029;-53
2022/06/12 14:21:36;;;;;;;4.05;1.65;;;22.30;87.00;;;;;;5054227;28;20024;-52
2022/06/12 14:24:14;;;;;;;4.55;1.48;;;22.00;88.20;;;;;;5060875;28;20029;-52
2022/06/12 14:26:42;;;;;;;5.88;2.03;;;21.70;89.40;;;;;;5063407;28;20082;-52